Time;durP1;ratioP1;P1;durP2;ratioP2;P2;SDS_P1;SDS_P2;PMS_P1;PMS_P2;Temp;Humidity;BMP_temperature;BMP_pressure;BME280_temperature;BME280_humidity;BME280_pressure;Samples;Min_cycle;Max_cycle;Signal;HPM_P1;HPM_P2
2021/12/03 00:01:44;;;;;;;12.98;6.53;;;;;;;3.68;71.94;94109.44;4994087;28;20042;-85
2021/12/03 00:04:09;;;;;;;13.75;6.32;;;;;;;3.89;70.81;94132.88;4994099;28;20411;-85
2021/12/03 00:06:37;;;;;;;14.50;6.70;;;;;;;4.10;70.18;94135.56;5013101;28;20034;-86
2021/12/03 00:09:05;;;;;;;12.48;6.10;;;;;;;4.20;70.93;94167.88;4992051;28;20027;-85
2021/12/03 00:11:30;;;;;;;17.05;5.93;;;;;;;3.77;70.23;94105.28;4992855;28;20034;-85
2021/12/03 00:13:56;;;;;;;9.63;5.60;;;;;;;2.38;69.90;93870.25;4994089;28;20398;-86
2021/12/03 00:16:21;;;;;;;13.02;6.22;;;;;;;4.20;71.23;94148.72;4992704;28;20034;-85
2021/12/03 00:18:47;;;;;;;12.43;6.07;;;;;;;3.48;71.05;94052.50;5001093;28;20088;-85
2021/12/03 00:21:13;;;;;;;12.43;5.90;;;;;;;3.56;70.95;94072.19;5003571;28;20458;-86
2021/12/03 00:23:39;;;;;;;13.35;6.97;;;;;;;3.05;71.60;93983.66;5004220;28;20245;-85
2021/12/03 00:26:06;;;;;;;12.88;6.28;;;;;;;2.17;71.49;93885.03;5000624;28;20034;-85
2021/12/03 00:28:33;;;;;;;14.43;6.13;;;;;;;4.28;70.91;94166.56;4995144;28;20116;-85
2021/12/03 00:30:59;;;;;;;12.32;5.70;;;;;;;3.74;70.90;94062.00;4993153;28;20049;-85
2021/12/03 00:33:26;;;;;;;13.60;5.85;;;;;;;2.26;72.23;93922.78;5012129;28;20030;-85
2021/12/03 00:35:52;;;;;;;17.60;6.50;;;;;;;4.07;71.79;94157.88;4996157;28;20026;-85
2021/12/03 00:38:19;;;;;;;18.17;6.68;;;;;;;3.48;72.11;94044.63;4993839;28;20030;-84
2021/12/03 00:40:45;;;;;;;13.27;6.40;;;;;;;2.08;72.33;93842.09;4993445;28;20087;-85
2021/12/03 00:43:11;;;;;;;10.15;6.07;;;;;;;3.35;72.23;94066.88;4994178;28;20093;-84
2021/12/03 00:45:36;;;;;;;11.85;6.03;;;;;;;2.16;71.25;93896.53;4994250;28;20038;-85
2021/12/03 00:48:03;;;;;;;16.95;6.70;;;;;;;3.99;71.73;94141.81;4993545;28;20130;-85
2021/12/03 00:50:30;;;;;;;11.18;6.38;;;;;;;4.31;71.08;94176.56;4995750;28;20030;-85
2021/12/03 00:52:56;;;;;;;13.40;6.45;;;;;;;4.12;70.72;94110.63;4992628;28;20760;-85
2021/12/03 00:55:24;;;;;;;13.77;6.65;;;;;;;3.92;70.82;94104.56;4990097;28;20285;-85
2021/12/03 00:57:50;;;;;;;17.20;7.97;;;;;;;3.70;70.94;94049.69;4990236;28;20113;-85
2021/12/03 01:00:23;;;;;;;10.43;6.15;;;;;;;4.25;71.27;94138.25;4989476;28;20080;-86
2021/12/03 01:02:51;;;;;;;10.30;5.82;;;;;;;3.93;70.89;94078.06;4989378;28;20034;-85
2021/12/03 01:05:17;;;;;;;11.90;6.45;;;;;;;3.67;71.17;94071.16;4990404;28;20106;-85
2021/12/03 01:07:42;;;;;;;13.75;6.65;;;;;;;3.84;71.62;94090.91;5004817;28;20061;-85
2021/12/03 01:10:09;;;;;;;10.32;5.53;;;;;;;3.11;71.32;93981.84;4992831;28;20061;-84
2021/12/03 01:12:36;;;;;;;11.13;6.10;;;;;;;3.20;71.94;93990.03;4990727;28;20034;-85
2021/12/03 01:15:01;;;;;;;11.75;6.32;;;;;;;2.17;71.75;93824.88;4972179;28;20564;-85
2021/12/03 01:17:27;;;;;;;10.52;5.38;;;;;;;3.42;71.50;94007.13;4988764;28;20432;-85
2021/12/03 01:19:53;;;;;;;13.48;5.60;;;;;;;4.62;71.23;94164.28;4988541;28;20629;-85
2021/12/03 01:22:18;;;;;;;10.15;5.38;;;;;;;4.74;70.88;94179.78;4991868;28;20036;-86
2021/12/03 01:24:44;;;;;;;12.93;6.38;;;;;;;4.55;71.19;94154.06;4997903;28;20026;-85
2021/12/03 01:27:09;;;;;;;15.57;6.47;;;;;;;3.44;71.00;93975.41;5004618;28;20026;-85
2021/12/03 01:29:35;;;;;;;10.68;5.70;;;;;;;4.42;71.30;94143.28;4991484;28;20034;-85
2021/12/03 01:32:00;;;;;;;5.72;3.08;;;;;;;4.63;70.56;94111.53;4991090;28;20045;-85
2021/12/03 01:34:26;;;;;;;5.95;2.35;;;;;;;4.89;68.58;94058.97;4992245;28;20436;-85
2021/12/03 01:36:51;;;;;;;8.18;2.20;;;;;;;5.60;66.90;94095.59;4992080;28;20049;-85
2021/12/03 01:39:17;;;;;;;8.73;3.47;;;;;;;6.44;64.64;94094.69;4990762;28;20100;-85
2021/12/03 01:41:44;;;;;;;6.03;3.53;;;;;;;6.51;65.60;94135.47;5008911;28;20034;-85
2021/12/03 01:44:10;;;;;;;9.82;4.35;;;;;;;6.24;65.79;94114.03;4993598;28;20038;-85
2021/12/03 01:46:36;;;;;;;9.05;4.28;;;;;;;5.39;65.82;93982.63;4992155;28;20038;-85
2021/12/03 01:49:04;;;;;;;14.52;6.10;;;;;;;5.25;66.45;93992.16;4992480;28;20061;-85
2021/12/03 01:51:30;;;;;;;8.90;4.35;;;;;;;4.62;66.55;93923.50;4992524;28;20027;-85
2021/12/03 01:53:55;;;;;;;8.75;5.07;;;;;;;5.34;66.44;94035.19;4993628;28;20037;-85
2021/12/03 01:56:23;;;;;;;13.60;4.47;;;;;;;5.94;66.92;94145.78;5009122;28;20038;-86
2021/12/03 01:58:51;;;;;;;15.07;5.10;;;;;;;5.65;67.40;94106.09;4992210;28;20160;-83
2021/12/03 02:01:20;;;;;;;11.48;4.47;;;;;;;5.02;68.04;94005.88;4993996;28;20027;-83
2021/12/03 02:03:48;;;;;;;9.10;4.60;;;;;;;5.93;68.15;94121.31;4994694;28;20061;-84
2021/12/03 02:06:15;;;;;;;8.80;4.85;;;;;;;4.66;69.45;93963.13;4995436;28;20034;-84
2021/12/03 02:08:42;;;;;;;16.10;5.22;;;;;;;3.89;68.87;93843.59;4996402;28;20031;-84
2021/12/03 02:11:10;;;;;;;11.40;4.70;;;;;;;3.21;68.53;93758.41;4996146;28;20038;-84
2021/12/03 02:13:36;;;;;;;11.85;5.72;;;;;;;5.25;68.87;94057.06;4996466;28;20286;-84
2021/12/03 02:16:02;;;;;;;13.15;5.38;;;;;;;5.16;69.38;94056.81;4996284;28;20413;-84
2021/12/03 02:18:27;;;;;;;8.00;4.82;;;;;;;5.36;69.19;94105.94;4995349;28;20058;-85
2021/12/03 02:20:56;;;;;;;7.38;3.97;;;;;;;5.66;68.83;94121.63;5000601;28;20105;-83
2021/12/03 02:23:23;;;;;;;5.80;4.10;;;;;;;5.49;68.71;94075.66;4997563;28;20031;-84
2021/12/03 02:25:49;;;;;;;12.55;4.65;;;;;;;5.00;69.14;94010.59;4998024;28;20030;-84
2021/12/03 02:28:18;;;;;;;8.00;4.28;;;;;;;5.83;68.35;94113.41;4996417;28;20420;-84
2021/12/03 02:30:44;;;;;;;9.23;4.40;;;;;;;5.51;69.38;94079.59;4992553;28;20038;-84
2021/12/03 02:33:11;;;;;;;14.32;4.95;;;;;;;5.37;67.89;94087.25;4992042;28;20036;-82
2021/12/03 02:35:39;;;;;;;7.85;4.32;;;;;;;4.48;68.20;93947.94;4991041;28;20073;-82
2021/12/03 02:38:05;;;;;;;11.23;3.75;;;;;;;5.03;68.16;94018.72;4993448;28;20536;-82
2021/12/03 02:40:31;;;;;;;13.35;4.97;;;;;;;4.82;68.15;94050.56;4994861;28;20121;-83
2021/12/03 02:42:56;;;;;;;12.95;5.43;;;;;;;5.48;67.60;94114.31;4997332;28;20041;-85
2021/12/03 02:45:22;;;;;;;11.15;5.22;;;;;;;5.60;68.05;94111.38;4995839;28;20085;-84
2021/12/03 02:47:48;;;;;;;10.70;4.80;;;;;;;5.29;68.66;94073.88;4994959;28;20034;-84
2021/12/03 02:50:15;;;;;;;11.52;4.25;;;;;;;4.96;68.96;94012.97;4997872;28;20060;-84
2021/12/03 02:52:44;;;;;;;5.50;3.08;;;;;;;5.71;68.78;94089.25;4997312;28;20046;-83
2021/12/03 02:55:10;;;;;;;14.25;4.88;;;;;;;5.46;69.05;94061.22;4996896;28;20449;-83
2021/12/03 02:57:35;;;;;;;10.02;4.25;;;;;;;4.61;67.91;93900.13;4995981;28;20066;-82
2021/12/03 03:00:03;;;;;;;12.50;4.07;;;;;;;5.44;68.40;94024.66;4992801;28;20026;-83
2021/12/03 03:02:28;;;;;;;10.18;5.18;;;;;;;5.02;68.76;93946.22;4991651;28;20085;-82
2021/12/03 03:04:54;;;;;;;10.82;5.15;;;;;;;5.61;68.44;94063.78;4990432;28;20110;-82
2021/12/03 03:07:20;;;;;;;12.73;4.60;;;;;;;5.90;68.65;94113.94;4992049;28;20040;-83
2021/12/03 03:09:46;;;;;;;5.35;3.83;;;;;;;5.10;68.07;93986.16;4990257;28;20416;-83
2021/12/03 03:12:13;;;;;;;6.40;3.47;;;;;;;4.80;69.22;93900.34;4992213;28;20045;-82
2021/12/03 03:14:51;;;;;;;9.20;4.45;;;;;;;5.81;70.52;94142.63;4990702;28;20058;-82
2021/12/03 03:17:16;;;;;;;7.13;3.22;;;;;;;5.82;69.60;94122.34;4991774;28;20117;-82
2021/12/03 03:19:42;;;;;;;8.98;2.70;;;;;;;5.77;68.94;94069.78;4992841;28;20034;-82
2021/12/03 03:22:08;;;;;;;5.45;3.15;;;;;;;5.24;69.55;94008.19;4992605;28;20046;-82
2021/12/03 03:24:34;;;;;;;7.55;4.22;;;;;;;5.95;68.49;94140.22;4990984;28;20034;-82
2021/12/03 03:26:59;;;;;;;8.70;4.55;;;;;;;5.52;68.43;94093.53;4992352;28;20027;-82
2021/12/03 03:29:25;;;;;;;7.13;4.10;;;;;;;4.79;68.64;93993.31;4990136;28;20050;-82
2021/12/03 03:31:51;;;;;;;8.90;4.45;;;;;;;5.66;68.36;94123.47;4991591;28;20347;-82
2021/12/03 03:34:17;;;;;;;12.48;4.95;;;;;;;5.23;67.97;94038.16;4991049;28;20057;-82
2021/12/03 03:36:42;;;;;;;14.35;5.22;;;;;;;4.42;69.00;93926.16;4990972;28;20384;-82
2021/12/03 03:39:11;;;;;;;9.30;4.88;;;;;;;5.31;69.42;94042.84;4990560;28;20069;-82
2021/12/03 03:41:37;;;;;;;11.88;4.97;;;;;;;4.74;69.52;93964.41;4992564;28;20172;-82
2021/12/03 03:44:03;;;;;;;15.27;5.70;;;;;;;5.71;68.94;94113.72;4992524;28;20517;-82
2021/12/03 03:46:29;;;;;;;12.38;4.38;;;;;;;5.66;68.90;94110.31;4991053;28;20378;-82
2021/12/03 03:48:55;;;;;;;8.80;4.70;;;;;;;5.44;68.83;94102.75;4990992;28;20037;-83
2021/12/03 03:51:21;;;;;;;6.63;3.58;;;;;;;5.84;68.71;94146.56;4991033;28;20061;-84
2021/12/03 03:53:46;;;;;;;9.23;4.00;;;;;;;5.15;69.27;94025.53;4992023;28;20114;-83
2021/12/03 03:56:12;;;;;;;10.98;3.90;;;;;;;5.37;70.18;94125.91;4990869;28;20120;-82
2021/12/03 03:58:38;;;;;;;13.07;4.53;;;;;;;5.61;69.51;94131.38;4992675;28;20037;-82
2021/12/03 04:01:05;;;;;;;9.38;4.72;;;;;;;5.76;68.72;94141.84;4990350;28;20042;-82
2021/12/03 04:03:31;;;;;;;11.75;4.50;;;;;;;5.62;70.15;94119.81;4990730;28;20089;-82
2021/12/03 04:05:58;;;;;;;5.82;2.70;;;;;;;5.27;69.09;94041.78;4990872;28;20038;-82
2021/12/03 04:08:24;;;;;;;6.22;3.10;;;;;;;4.82;68.95;93966.50;4991330;28;20137;-82
2021/12/03 04:10:50;;;;;;;9.43;3.25;;;;;;;5.61;69.74;94105.06;4990437;28;20026;-82
2021/12/03 04:13:15;;;;;;;11.15;3.65;;;;;;;5.68;68.62;94106.38;4991144;28;20037;-83
2021/12/03 04:15:42;;;;;;;8.50;4.35;;;;;;;5.87;69.10;94138.16;4991085;28;20034;-83
2021/12/03 04:18:09;;;;;;;15.82;4.88;;;;;;;5.44;68.73;94037.00;4991185;28;20442;-82
2021/12/03 04:20:35;;;;;;;16.77;5.43;;;;;;;5.91;69.62;94146.31;4991629;28;20026;-82
2021/12/03 04:23:01;;;;;;;14.30;4.55;;;;;;;5.53;68.57;94084.59;4992368;28;20027;-82
2021/12/03 04:25:27;;;;;;;7.20;3.80;;;;;;;4.17;68.98;93885.00;4992954;28;20062;-81
2021/12/03 04:27:53;;;;;;;10.13;3.53;;;;;;;5.57;68.22;94090.91;4993204;28;20413;-82
2021/12/03 04:30:25;;;;;;;19.52;7.20;;;;;;;5.71;69.39;94094.53;4991353;28;20069;-82
2021/12/03 04:32:51;;;;;;;14.55;6.60;;;;;;;5.54;70.36;94109.84;4989217;28;20045;-82
2021/12/03 04:35:18;;;;;;;10.43;3.90;;;;;;;5.88;69.28;94134.47;4988874;28;20391;-82
2021/12/03 04:37:43;;;;;;;6.97;4.03;;;;;;;5.25;69.64;94052.59;4990794;28;20089;-81
2021/12/03 04:40:12;;;;;;;8.88;4.18;;;;;;;5.70;68.98;94143.72;4989013;28;20038;-82
2021/12/03 04:42:39;;;;;;;4.97;3.00;;;;;;;5.51;67.40;94086.69;4989181;28;20038;-82
2021/12/03 04:45:07;;;;;;;8.98;3.38;;;;;;;5.44;68.93;94079.88;4989091;28;20033;-82
2021/12/03 04:47:33;;;;;;;9.95;4.50;;;;;;;5.25;68.46;94055.22;4988789;28;20107;-83
2021/12/03 04:49:59;;;;;;;10.57;4.53;;;;;;;5.03;67.73;93987.19;4989126;28;20453;-82
2021/12/03 04:52:25;;;;;;;12.43;4.72;;;;;;;5.51;68.78;94068.28;4990336;28;20046;-82
2021/12/03 04:54:51;;;;;;;9.05;5.10;;;;;;;4.77;69.21;93979.66;4990579;28;20066;-82
2021/12/03 04:57:17;;;;;;;6.57;4.22;;;;;;;6.07;67.68;94169.66;4990765;28;20669;-82
2021/12/03 04:59:42;;;;;;;8.68;4.30;;;;;;;6.09;67.58;94183.34;4988955;28;20031;-82
2021/12/03 05:02:08;;;;;;;8.27;4.07;;;;;;;4.97;67.85;93996.16;4990209;28;20046;-82
2021/12/03 05:04:38;;;;;;;7.38;3.50;;;;;;;5.61;68.29;94102.44;4988987;28;20469;-82
2021/12/03 05:09:37;;;;;;;12.93;4.72;;;;;;;6.01;68.02;94169.97;4990277;28;20377;-82
2021/12/03 05:12:04;;;;;;;10.30;3.90;;;;;;;5.93;68.22;94178.41;5005426;28;20468;-82
2021/12/03 05:14:30;;;;;;;7.25;3.67;;;;;;;5.70;68.75;94156.88;4988482;28;20023;-82
2021/12/03 05:16:56;;;;;;;11.90;4.18;;;;;;;5.71;68.63;94157.66;4988350;28;20556;-82
2021/12/03 05:19:23;;;;;;;8.25;3.75;;;;;;;5.93;68.25;94149.47;4990241;28;20041;-82
2021/12/03 05:21:49;;;;;;;14.20;6.63;;;;;;;5.97;68.86;94163.66;4988536;28;20030;-81
2021/12/03 05:24:15;;;;;;;12.30;5.90;;;;;;;5.37;68.33;94058.34;4988222;28;20066;-82
2021/12/03 05:26:41;;;;;;;13.57;5.53;;;;;;;6.07;68.52;94163.63;4988439;28;20196;-82
2021/12/03 05:29:08;;;;;;;5.50;3.45;;;;;;;5.92;67.18;94153.16;4980901;28;20073;-81
2021/12/03 05:31:36;;;;;;;6.65;4.43;;;;;;;5.94;67.76;94154.47;4988490;28;20099;-82
2021/12/03 05:34:05;;;;;;;6.22;3.78;;;;;;;5.32;68.13;94066.25;4985110;28;20390;-82
2021/12/03 05:36:31;;;;;;;8.90;4.13;;;;;;;6.33;67.95;94183.50;4987336;28;20130;-81
2021/12/03 05:38:57;;;;;;;8.32;3.88;;;;;;;5.11;68.30;94024.53;4985661;28;20113;-82
2021/12/03 05:41:23;;;;;;;14.23;4.22;;;;;;;5.67;67.50;94111.88;4987667;28;20045;-83
2021/12/03 05:43:49;;;;;;;8.88;4.15;;;;;;;5.35;67.97;94057.81;5004725;28;20018;-81
2021/12/03 05:46:14;;;;;;;10.73;5.20;;;;;;;6.32;67.18;94220.66;4998732;28;20030;-81
2021/12/03 05:48:40;;;;;;;9.23;4.55;;;;;;;6.29;67.95;94211.44;5002555;28;20031;-82
2021/12/03 05:51:06;;;;;;;13.18;5.10;;;;;;;5.21;68.18;94048.13;4988845;28;20433;-81
2021/12/03 05:53:32;;;;;;;11.07;4.70;;;;;;;5.73;67.02;94134.47;5000501;28;20023;-81
2021/12/03 05:55:58;;;;;;;10.55;4.13;;;;;;;6.21;67.36;94214.63;4992431;28;20591;-82
2021/12/03 05:58:24;;;;;;;7.35;4.10;;;;;;;6.23;66.75;94196.72;4997443;28;20030;-82
2021/12/03 06:00:50;;;;;;;12.77;5.30;;;;;;;6.23;66.90;94180.13;4993705;28;20034;-82
2021/12/03 06:03:16;;;;;;;16.13;5.90;;;;;;;5.89;66.96;94117.63;4993460;28;20030;-81
2021/12/03 06:05:42;;;;;;;8.93;4.60;;;;;;;5.91;68.07;94133.16;4996219;28;20037;-82
2021/12/03 06:08:08;;;;;;;7.75;5.05;;;;;;;6.41;67.85;94203.22;4996277;28;20026;-82
2021/12/03 06:10:35;;;;;;;7.55;4.10;;;;;;;6.02;67.59;94111.78;5000663;28;20336;-82
2021/12/03 06:13:00;;;;;;;8.50;3.35;;;;;;;6.07;67.03;94129.41;4990137;28;20130;-82
2021/12/03 06:15:26;;;;;;;14.57;4.20;;;;;;;6.18;66.65;94144.84;5008450;28;20033;-82
2021/12/03 06:17:52;;;;;;;6.00;3.83;;;;;;;6.38;67.00;94167.69;5000748;28;20042;-82
2021/12/03 06:20:18;;;;;;;9.60;4.82;;;;;;;6.78;67.55;94243.09;4999129;28;20101;-82
2021/12/03 06:22:44;;;;;;;13.52;3.72;;;;;;;6.40;66.08;94160.31;5001626;28;20513;-82
2021/12/03 06:25:12;;;;;;;5.78;3.63;;;;;;;7.02;65.61;94235.28;5005463;28;20048;-81
2021/12/03 06:27:38;;;;;;;12.63;3.90;;;;;;;6.84;65.38;94181.38;5003147;28;20037;-81
2021/12/03 06:30:07;;;;;;;8.05;3.75;;;;;;;6.04;66.08;94059.66;4993048;28;20469;-82
2021/12/03 06:32:34;;;;;;;10.90;4.05;;;;;;;6.95;66.59;94205.81;4999890;28;20046;-82
2021/12/03 06:34:59;;;;;;;8.75;4.18;;;;;;;6.94;65.98;94205.00;5017554;28;20041;-81
2021/12/03 06:37:25;;;;;;;11.38;4.60;;;;;;;6.41;66.20;94122.34;5000862;28;20034;-82
2021/12/03 06:39:50;;;;;;;13.18;4.10;;;;;;;6.33;66.45;94095.84;5009229;28;20065;-82
2021/12/03 06:42:16;;;;;;;11.13;4.07;;;;;;;6.85;66.71;94174.25;4998694;28;20034;-82
2021/12/03 06:44:41;;;;;;;5.95;3.92;;;;;;;6.61;66.96;94132.00;5001064;28;20046;-82
2021/12/03 06:47:07;;;;;;;7.82;3.58;;;;;;;6.88;67.33;94179.75;5000833;28;20102;-82
2021/12/03 06:49:33;;;;;;;13.68;3.63;;;;;;;7.30;65.18;94223.22;5002035;28;20136;-82
2021/12/03 06:52:03;;;;;;;11.93;3.80;;;;;;;6.71;65.25;94142.47;4999130;28;20057;-81
2021/12/03 06:54:31;;;;;;;10.93;4.05;;;;;;;6.68;65.27;94124.56;4994451;28;20042;-82
2021/12/03 06:56:58;;;;;;;9.60;4.55;;;;;;;6.51;65.57;94088.06;4997097;28;20092;-82
2021/12/03 06:59:27;;;;;;;7.07;4.03;;;;;;;7.42;65.17;94239.47;4994736;28;20045;-82
2021/12/03 07:01:53;;;;;;;10.60;4.30;;;;;;;7.37;64.48;94228.97;4991226;28;20310;-81
2021/12/03 07:04:19;;;;;;;11.40;4.00;;;;;;;7.66;64.77;94247.47;4988440;28;20579;-81
2021/12/03 07:06:45;;;;;;;16.42;5.38;;;;;;;7.74;65.45;94237.09;4986958;28;20351;-81
2021/12/03 07:09:11;;;;;;;14.70;4.10;;;;;;;7.49;65.80;94226.75;4999034;28;20065;-81
2021/12/03 07:11:37;;;;;;;9.15;4.07;;;;;;;7.65;64.29;94243.25;4994654;28;20412;-81
2021/12/03 07:14:03;;;;;;;14.38;4.70;;;;;;;6.78;64.45;94127.13;5001238;28;20042;-82
2021/12/03 07:16:28;;;;;;;9.32;3.88;;;;;;;7.55;63.97;94201.91;5000723;28;20057;-81
2021/12/03 07:18:54;;;;;;;13.18;4.90;;;;;;;7.27;65.39;94155.19;4996397;28;20072;-81
2021/12/03 07:21:22;;;;;;;19.92;5.80;;;;;;;7.09;65.24;94100.53;5003890;28;20044;-81
2021/12/03 07:23:50;;;;;;;18.90;4.97;;;;;;;7.68;64.79;94232.16;4997468;28;20097;-81
2021/12/03 07:26:15;;;;;;;15.27;4.03;;;;;;;7.59;64.49;94208.22;5004018;28;20037;-81
2021/12/03 07:28:41;;;;;;;16.30;4.30;;;;;;;7.72;64.36;94233.16;5005193;28;20095;-81
2021/12/03 07:31:06;;;;;;;6.95;3.85;;;;;;;7.73;64.51;94210.97;4999657;28;20046;-81
2021/12/03 07:33:32;;;;;;;15.38;4.10;;;;;;;7.60;65.42;94198.44;4997032;28;20146;-82
2021/12/03 07:35:58;;;;;;;6.03;2.47;;;;;;;7.90;64.47;94208.69;4990610;28;20049;-81
2021/12/03 07:38:24;;;;;;;5.63;2.35;;;;;;;7.52;64.84;94123.31;4990603;28;20036;-81
2021/12/03 07:40:50;;;;;;;8.63;2.95;;;;;;;8.18;64.15;94195.72;4994989;28;20441;-81
2021/12/03 07:43:19;;;;;;;7.13;3.70;;;;;;;7.90;64.99;94147.19;5001312;28;20422;-81
2021/12/03 07:45:47;;;;;;;14.20;3.38;;;;;;;8.74;64.47;94246.06;4993141;28;20456;-81
2021/12/03 07:48:13;;;;;;;14.18;3.42;;;;;;;8.50;64.09;94225.75;4999647;28;20034;-82
2021/12/03 07:50:40;;;;;;;13.63;3.75;;;;;;;8.79;64.57;94260.00;5001801;28;20030;-82
2021/12/03 07:53:06;;;;;;;12.10;3.90;;;;;;;8.01;64.10;94125.66;4991842;28;20521;-81
2021/12/03 07:55:33;;;;;;;8.15;2.67;;;;;;;9.05;64.15;94259.69;4984941;28;20569;-82
2021/12/03 07:57:59;;;;;;;10.75;3.33;;;;;;;7.37;63.10;94004.78;4999544;28;20651;-82
2021/12/03 08:00:24;;;;;;;8.85;3.22;;;;;;;9.29;62.83;94271.78;4999109;28;20521;-82
2021/12/03 08:02:50;;;;;;;11.75;3.30;;;;;;;8.84;63.17;94207.09;5001219;28;20038;-82
2021/12/03 08:05:16;;;;;;;9.27;3.63;;;;;;;9.32;63.37;94277.53;4996226;28;20026;-82
2021/12/03 08:07:46;;;;;;;12.32;3.15;;;;;;;8.04;61.96;94068.88;5000696;28;20366;-82
2021/12/03 08:10:12;;;;;;;9.32;3.08;;;;;;;9.38;62.18;94284.34;4998486;28;20755;-82
2021/12/03 08:12:43;;;;;;;10.93;2.70;;;;;;;8.90;62.21;94170.78;4998074;28;20133;-82
2021/12/03 08:15:08;;;;;;;21.17;4.22;;;;;;;9.22;61.01;94193.84;4996636;28;20037;-82
2021/12/03 08:17:34;;;;;;;13.70;3.17;;;;;;;9.00;61.62;94175.13;5016945;28;20060;-83
2021/12/03 08:20:00;;;;;;;11.80;3.85;;;;;;;9.35;62.35;94216.91;4993568;28;20104;-82
2021/12/03 08:22:26;;;;;;;7.90;2.78;;;;;;;9.51;62.18;94243.91;4998333;28;20394;-82
2021/12/03 08:24:51;;;;;;;22.13;4.03;;;;;;;9.51;61.52;94241.28;4984519;28;20059;-82
2021/12/03 08:27:17;;;;;;;6.65;2.65;;;;;;;9.17;60.66;94172.72;5002156;28;20034;-82
2021/12/03 08:29:43;;;;;;;14.43;3.47;;;;;;;9.01;60.97;94140.44;5001155;28;20045;-82
2021/12/03 08:32:10;;;;;;;16.88;3.20;;;;;;;9.69;61.68;94258.97;5015519;28;20080;-82
2021/12/03 08:34:36;;;;;;;8.95;2.75;;;;;;;9.05;60.85;94143.31;4996505;28;20041;-82
2021/12/03 08:37:03;;;;;;;11.95;3.30;;;;;;;9.08;60.41;94159.38;5002341;28;20037;-82
2021/12/03 08:39:32;;;;;;;15.20;3.45;;;;;;;9.21;60.44;94177.19;4989506;28;20058;-82
2021/12/03 08:41:58;;;;;;;18.25;5.30;;;;;;;9.69;61.68;94261.59;5002113;28;20547;-83
2021/12/03 08:44:24;;;;;;;13.60;4.30;;;;;;;9.48;61.51;94223.31;4996924;28;20049;-82
2021/12/03 08:47:05;;;;;;;15.32;4.18;;;;;;;9.60;61.38;94242.19;4982060;28;20443;-82
2021/12/03 08:49:54;;;;;;;13.82;5.47;;;;;;;9.26;60.29;94161.22;4984318;28;20027;-82
2021/12/03 08:54:54;;;;;;;12.80;3.95;;;;;;;9.99;60.71;94247.09;4989936;28;20041;-82
2021/12/03 08:57:21;;;;;;;14.07;2.75;;;;;;;10.20;60.44;94285.44;4980736;28;20018;-82
2021/12/03 08:59:47;;;;;;;13.40;2.85;;;;;;;9.75;60.69;94239.28;4996139;28;20366;-83
2021/12/03 09:02:13;;;;;;;15.20;3.63;;;;;;;9.61;60.25;94202.16;4991116;28;20026;-83
2021/12/03 09:04:38;;;;;;;11.25;3.45;;;;;;;10.09;61.32;94278.69;4995500;28;20473;-83
2021/12/03 09:07:05;;;;;;;36.17;5.22;;;;;;;9.00;60.50;94125.66;5004211;28;20042;-82
2021/12/03 09:09:32;;;;;;;15.88;3.90;;;;;;;10.19;60.47;94294.44;4997451;28;20533;-82
2021/12/03 09:11:57;;;;;;;11.35;3.35;;;;;;;8.98;60.15;94133.09;5006194;28;20018;-83
2021/12/03 09:16:58;;;;;;;12.18;2.22;;;;;;;10.39;58.60;94312.63;4994420;28;20279;-82
2021/12/03 09:19:34;;;;;;;13.20;3.90;;;;;;;9.31;58.68;94141.06;4983287;28;20045;-82
2021/12/03 09:22:00;;;;;;;29.02;7.70;;;;;;;10.50;58.42;94307.94;4989146;28;20070;-81
2021/12/03 09:24:36;;;;;;;18.05;3.47;;;;;;;10.04;57.89;94218.66;4990601;28;20085;-81
2021/12/03 09:27:03;;;;;;;13.55;3.05;;;;;;;10.48;58.69;94296.03;4997083;28;20080;-83
2021/12/03 09:29:31;;;;;;;16.10;2.65;;;;;;;10.34;57.80;94262.38;4982657;28;20485;-82
2021/12/03 09:31:59;;;;;;;16.83;2.58;;;;;;;9.62;58.43;94139.44;4991263;28;20297;-82
2021/12/03 09:34:26;;;;;;;22.60;5.50;;;;;;;10.36;58.28;94276.13;4989345;28;20033;-82
2021/12/03 09:36:51;;;;;;;12.50;4.53;;;;;;;10.12;57.45;94227.78;4988742;28;20108;-81
2021/12/03 09:39:22;;;;;;;13.95;2.95;;;;;;;10.11;58.25;94254.56;4987464;28;20567;-81
2021/12/03 09:41:50;;;;;;;17.50;2.35;;;;;;;10.61;57.00;94303.22;4983226;28;20505;-81
2021/12/03 09:44:16;;;;;;;6.22;1.10;;;;;;;10.58;55.31;94290.56;4991018;28;20113;-82
2021/12/03 09:46:43;;;;;;;11.18;1.75;;;;;;;9.80;55.76;94170.34;4976747;28;20648;-82
2021/12/03 09:49:26;;;;;;;9.60;1.75;;;;;;;10.11;56.54;94198.94;4982582;28;20057;-82
2021/12/03 09:52:03;;;;;;;8.30;2.50;;;;;;;10.63;56.90;94301.84;4992136;28;20029;-81
2021/12/03 09:54:32;;;;;;;15.00;2.28;;;;;;;10.00;55.62;94208.91;4986360;28;20081;-82
2021/12/03 09:57:03;;;;;;;25.67;4.50;;;;;;;10.65;57.78;94298.91;4987217;28;20070;-81
2021/12/03 10:15:18;;;;;;;16.05;3.13;;;;;;;10.80;55.15;94241.06;4992391;28;20034;-84
2021/12/03 10:23:34;;;;;;;16.80;2.45;;;;;;;10.77;53.63;94231.03;4983499;28;20034;-86
2021/12/03 10:45:03;;;;;;;16.00;5.00;;;;;;;12.00;53.90;94288.28;4998807;28;20037;-86
2021/12/03 10:50:23;;;;;;;12.25;2.50;;;;;;;12.08;51.89;94221.09;4986234;28;20390;-86
2021/12/03 10:53:09;;;;;;;14.63;3.10;;;;;;;11.06;53.50;94086.63;4994706;28;20038;-86
2021/12/03 10:56:46;;;;;;;18.00;3.65;;;;;;;12.34;51.44;94277.06;4990712;28;20116;-86
2021/12/03 10:58:47;;;;;;;16.00;2.92;;;;;;;12.25;51.80;94258.41;4998244;28;20195;-87
2021/12/03 11:02:15;;;;;;;13.55;2.47;;;;;;;12.12;52.58;94253.19;4986805;28;20045;-87
2021/12/03 11:56:24;;;;;;;13.70;3.92;;;;;;;10.67;53.62;94081.97;4986551;28;20036;-86
2021/12/03 12:02:35;;;;;;;13.48;2.03;;;;;;;11.47;50.05;94192.59;4987382;28;20540;-87
2021/12/03 13:16:06;;;;;;;22.77;3.92;;;;;;;11.32;52.71;94175.16;4986595;28;20484;-86
2021/12/03 14:40:31;;;;;;;16.40;3.15;;;;;;;10.92;53.24;94224.59;4988254;28;20144;-84
2021/12/03 14:51:18;;;;;;;13.23;2.10;;;;;;;11.38;50.73;94282.78;4991219;28;20077;-85
2021/12/03 14:56:19;;;;;;;28.48;6.18;;;;;;;10.90;53.49;94237.41;4988367;28;20069;-85
2021/12/03 14:58:50;;;;;;;14.07;2.60;;;;;;;10.72;52.80;94190.56;4988419;28;20070;-85
2021/12/03 15:07:15;;;;;;;7.80;2.00;;;;;;;11.30;52.70;94293.31;4986257;28;20087;-86
2021/12/03 15:09:44;;;;;;;7.72;1.95;;;;;;;10.81;51.72;94224.06;4986530;28;20042;-85
2021/12/03 15:20:16;;;;;;;12.75;2.75;;;;;;;11.49;51.45;94307.25;4986451;28;20031;-85
2021/12/03 15:30:46;;;;;;;9.50;2.93;;;;;;;10.92;51.44;94213.22;4993940;28;20034;-85
2021/12/03 15:33:24;;;;;;;19.00;3.50;;;;;;;11.31;52.23;94281.63;4995803;28;20037;-86
2021/12/03 15:35:56;;;;;;;11.82;2.53;;;;;;;10.76;50.91;94218.84;4998245;28;20042;-85
2021/12/03 15:38:38;;;;;;;14.88;2.50;;;;;;;11.54;50.89;94325.72;4988975;28;20042;-85
2021/12/03 15:52:25;;;;;;;22.67;4.15;;;;;;;11.19;52.30;94298.06;4990443;28;20068;-85
2021/12/03 16:10:20;;;;;;;15.45;5.57;;;;;;;8.44;66.44;94285.00;5001415;28;20033;-87
2021/12/03 16:25:59;;;;;;;14.90;5.95;;;;;;;8.54;68.53;94373.19;5002609;28;20034;-86
2021/12/03 16:52:32;;;;;;;9.75;3.20;;;;;;;6.31;70.24;94251.47;4987518;28;20042;-86
2021/12/03 16:55:00;;;;;;;6.82;3.50;;;;;;;7.07;70.31;94429.56;4987622;28;20046;-85
2021/12/03 16:57:37;;;;;;;13.93;3.95;;;;;;;4.63;70.70;94058.22;4986206;28;20469;-86
2021/12/03 17:00:22;;;;;;;8.82;3.30;;;;;;;7.03;71.45;94473.34;5001014;28;20161;-86
2021/12/03 17:02:57;;;;;;;9.52;3.92;;;;;;;6.21;71.79;94359.44;4988569;28;20042;-85
2021/12/03 17:19:21;;;;;;;9.82;3.95;;;;;;;5.59;72.97;94397.28;4993328;28;20303;-86
2021/12/03 17:55:31;;;;;;;5.78;3.13;;;;;;;6.06;72.54;94586.63;5008275;28;20045;-85
2021/12/03 17:58:07;;;;;;;3.97;2.80;;;;;;;5.52;72.51;94527.47;5007485;28;20034;-86
2021/12/03 18:08:49;;;;;;;5.88;3.15;;;;;;;4.93;73.87;94509.31;4990005;28;20061;-86
2021/12/03 18:51:10;;;;;;;4.38;2.42;;;;;;;4.71;77.76;94611.09;4987640;28;20456;-86
2021/12/03 18:56:22;;;;;;;7.78;2.58;;;;;;;2.13;78.70;94224.00;4987961;28;20736;-86
2021/12/03 18:58:53;;;;;;;11.00;3.10;;;;;;;4.72;78.89;94615.31;4985968;28;20049;-88
2021/12/03 19:01:19;;;;;;;5.00;2.25;;;;;;;4.45;77.93;94602.97;4990344;28;20533;-87
2021/12/03 19:08:54;;;;;;;11.98;2.95;;;;;;;4.14;79.83;94622.88;5004408;28;20361;-87
2021/12/03 19:14:08;;;;;;;10.90;4.05;;;;;;;3.04;81.26;94450.19;4998022;28;20100;-87
2021/12/03 19:16:35;;;;;;;5.55;2.50;;;;;;;4.10;80.07;94632.31;4989993;28;20568;-88
2021/12/03 19:19:06;;;;;;;8.10;2.88;;;;;;;3.06;80.34;94522.22;5007780;28;20045;-88
2021/12/03 19:21:38;;;;;;;7.25;3.33;;;;;;;3.42;81.57;94552.31;5010038;28;20509;-88